< < Back
Terminal Aerodrome Forecast


Current Version              Previous Versions:   1  2  3  4  5  6  7  8  9  

Terminal Aerodrome Forecast

690
FTUS44 KBMX 312336
TAFBHM
TAF
KBHM 312336Z 0100/0124 28010KT P6SM BKN045 BKN100
     FM010100 28010G20KT 4SM TSRA BKN040CB OVC110
     FM010300 25006KT P6SM OVC080
     FM010800 00000KT 4SM BR BKN010
     FM011400 34003KT P6SM SCT025 BKN100=



Latest METAR

595
SAUS70 KWBC 011000 RRP
MTRBHM
METAR KBHM 010953Z 00000KT 10SM FEW090 OVC150 14/13 A3000 RMK AO2 RAE22
SLP155 P0001 T01390133


USA.gov is the U.S. government's official web portal to all federal, state and local government web resources and services.